createdAt,value
2022-12-13T00:00:55.239Z,55.40
2022-12-13T00:05:56.837Z,55.40
2022-12-13T00:10:59.224Z,55.30
2022-12-13T00:16:02.531Z,55.40
2022-12-13T00:21:05.191Z,55.40
2022-12-13T00:26:08.208Z,55.50
2022-12-13T00:31:44.650Z,55.70
2022-12-13T00:36:31.710Z,55.60
2022-12-13T00:41:34.841Z,55.40
2022-12-13T00:46:36.483Z,55.50
2022-12-13T00:51:38.346Z,55.40
2022-12-13T00:56:40.237Z,55.40
2022-12-13T01:01:41.952Z,55.00
2022-12-13T01:06:45.040Z,54.80
2022-12-13T01:11:47.021Z,54.60
2022-12-13T01:16:48.779Z,54.50
2022-12-13T01:21:53.755Z,54.60
2022-12-13T01:26:57.159Z,54.50
2022-12-13T01:31:58.970Z,54.40
2022-12-13T01:37:00.636Z,54.50
2022-12-13T01:42:03.932Z,54.50
2022-12-13T01:47:05.707Z,54.50
2022-12-13T01:52:10.690Z,54.60
2022-12-13T01:57:13.115Z,54.50
2022-12-13T02:02:21.505Z,54.50
2022-12-13T02:07:25.428Z,54.60
2022-12-13T02:12:29.834Z,55.70
2022-12-13T02:17:47.700Z,54.60
2022-12-13T02:23:12.959Z,54.50
2022-12-13T02:28:30.677Z,54.30
2022-12-13T02:33:40.185Z,54.10
2022-12-13T02:38:45.955Z,53.90
2022-12-13T02:44:01.047Z,53.90
2022-12-13T02:49:04.614Z,53.90
2022-12-13T02:54:06.377Z,53.90
2022-12-13T02:59:11.560Z,53.90
2022-12-13T03:04:24.850Z,53.80
2022-12-13T03:09:43.902Z,54.00
2022-12-13T03:14:49.347Z,54.00
2022-12-13T03:19:54.415Z,54.00
2022-12-13T03:24:56.135Z,54.20
2022-12-13T03:29:58.683Z,54.20
2022-12-13T03:35:00.667Z,54.20
2022-12-13T03:40:02.857Z,53.90
2022-12-13T03:45:04.967Z,53.70
2022-12-13T03:50:25.871Z,53.50
2022-12-13T03:55:28.684Z,53.50
2022-12-13T04:00:30.389Z,54.40
2022-12-13T04:05:32.208Z,53.30
2022-12-13T04:10:35.272Z,53.50
2022-12-13T04:15:37.083Z,53.50
2022-12-13T04:20:38.738Z,53.40
2022-12-13T04:25:41.014Z,53.30
2022-12-13T04:30:42.797Z,53.20
2022-12-13T04:35:44.460Z,53.20
2022-12-13T04:40:46.336Z,53.30
2022-12-13T06:03:03.111Z,52.70
2022-12-13T06:08:24.039Z,52.20
2022-12-13T06:13:32.451Z,51.90
2022-12-13T06:18:35.176Z,51.70
2022-12-13T06:23:36.882Z,51.60
2022-12-13T06:28:38.516Z,51.50
2022-12-13T06:33:40.171Z,51.60
2022-12-13T06:38:43.650Z,51.80
2022-12-13T06:43:46.372Z,51.70
2022-12-13T06:48:48.911Z,51.50
2022-12-13T06:53:50.541Z,51.30
2022-12-13T06:58:52.258Z,51.70
2022-12-13T07:04:03.454Z,52.00
2022-12-13T07:09:05.298Z,51.60
2022-12-13T07:14:07.651Z,51.50
2022-12-13T07:19:22.395Z,51.90
2022-12-13T07:24:26.085Z,53.20
2022-12-13T07:29:27.832Z,53.30
2022-12-13T07:34:30.152Z,53.30
2022-12-13T07:39:32.665Z,53.50
2022-12-13T07:44:34.301Z,53.40
2022-12-13T07:49:35.982Z,53.70
2022-12-13T07:54:37.942Z,53.50
2022-12-13T07:59:39.779Z,53.30
2022-12-13T08:04:44.737Z,53.10
2022-12-13T08:09:52.456Z,52.80
2022-12-13T08:14:55.540Z,52.50
2022-12-13T08:19:57.450Z,54.20
2022-12-13T08:24:59.149Z,54.80
2022-12-13T08:30:00.820Z,55.00
2022-12-13T08:35:02.444Z,55.00
2022-12-13T08:40:06.599Z,55.20
2022-12-13T08:45:08.475Z,55.20
2022-12-13T08:50:10.055Z,55.20
2022-12-13T08:55:12.838Z,55.00
2022-12-13T09:00:16.881Z,54.90
2022-12-13T09:05:34.374Z,54.90
2022-12-13T09:10:38.555Z,55.00
2022-12-13T09:15:46.203Z,55.00
2022-12-13T09:20:48.273Z,54.90
2022-12-13T09:25:56.600Z,54.70
2022-12-13T09:31:14.840Z,54.80
2022-12-13T09:36:17.893Z,54.70
2022-12-13T09:41:28.323Z,54.70
2022-12-13T09:46:34.867Z,54.80
2022-12-13T09:51:55.331Z,54.70
2022-12-13T09:57:32.796Z,54.60
2022-12-13T10:02:39.852Z,54.70
2022-12-13T10:07:41.993Z,54.60
2022-12-13T10:12:44.296Z,54.40
2022-12-13T10:17:54.837Z,54.30
2022-12-13T10:28:24.447Z,54.00
2022-12-13T10:33:26.400Z,54.00
2022-12-13T10:38:31.930Z,54.10
2022-12-13T10:43:35.325Z,53.90
2022-12-13T10:48:41.732Z,53.90
2022-12-13T10:53:48.335Z,53.90
2022-12-13T10:58:51.553Z,53.90
2022-12-13T11:04:02.749Z,54.00
2022-12-13T11:09:13.395Z,53.90
2022-12-13T11:14:31.897Z,53.80
2022-12-13T11:19:44.098Z,53.80
2022-12-13T11:24:50.136Z,53.60
2022-12-13T11:30:09.937Z,53.70
2022-12-13T11:35:24.919Z,53.70
2022-12-13T11:40:30.722Z,53.60
2022-12-13T11:45:38.879Z,53.50
2022-12-13T11:50:41.870Z,53.60
2022-12-13T11:55:47.615Z,53.70
2022-12-13T12:00:52.603Z,53.70
2022-12-13T12:05:57.246Z,53.60
2022-12-13T12:11:03.776Z,53.60
2022-12-13T12:16:08.407Z,53.70
2022-12-13T12:21:16.362Z,53.80
2022-12-13T12:26:19.327Z,53.80
2022-12-13T12:31:20.985Z,53.70
2022-12-13T12:37:02.664Z,53.80
2022-12-13T12:42:10.811Z,53.80
2022-12-13T12:47:49.082Z,54.00
2022-12-13T12:52:57.820Z,53.90
2022-12-13T12:58:18.507Z,53.90
2022-12-13T13:03:24.068Z,53.90
2022-12-13T13:08:30.330Z,54.00
2022-12-13T13:13:46.989Z,54.10
2022-12-13T13:18:54.094Z,54.00
2022-12-13T13:24:01.620Z,53.90
2022-12-13T13:29:27.595Z,53.90
2022-12-13T13:34:31.633Z,54.00
2022-12-13T13:39:36.033Z,53.90
2022-12-13T13:44:49.947Z,53.90
2022-12-13T13:50:03.501Z,53.70
2022-12-13T13:55:24.019Z,53.60
2022-12-13T14:00:39.067Z,53.60
2022-12-13T14:05:55.051Z,53.70
2022-12-13T14:11:05.425Z,53.60
2022-12-13T14:16:24.781Z,53.50
2022-12-13T14:21:30.146Z,53.50
2022-12-13T14:26:51.930Z,53.60
2022-12-13T14:31:53.811Z,53.50
2022-12-13T14:36:56.825Z,53.50
2022-12-13T14:41:59.290Z,53.50
2022-12-13T14:47:05.962Z,53.60
2022-12-13T14:52:07.867Z,53.50
2022-12-13T14:57:20.645Z,53.50
2022-12-13T15:02:30.469Z,54.40
2022-12-13T15:07:36.361Z,53.30
2022-12-13T15:12:41.287Z,53.00
2022-12-13T15:17:43.008Z,52.70
2022-12-13T15:22:44.774Z,52.50
2022-12-13T15:27:49.079Z,52.40
2022-12-13T15:33:03.542Z,52.50
2022-12-13T15:38:05.363Z,52.50
2022-12-13T15:43:13.528Z,52.60
2022-12-13T15:48:22.043Z,52.80
2022-12-13T15:53:28.467Z,53.00
2022-12-13T15:58:35.086Z,53.10
2022-12-13T16:03:44.199Z,53.10
2022-12-13T16:08:50.048Z,53.00
2022-12-13T16:13:51.674Z,53.00
2022-12-13T16:19:00.853Z,53.30
2022-12-13T16:24:02.534Z,53.30
2022-12-13T16:29:06.025Z,53.20
2022-12-13T16:34:07.987Z,53.10
2022-12-13T16:39:10.495Z,53.10
2022-12-13T16:44:20.474Z,53.20
2022-12-13T16:49:24.733Z,53.30
2022-12-13T16:54:26.754Z,53.30
2022-12-13T16:59:28.315Z,53.00
2022-12-13T17:04:30.087Z,52.80
2022-12-13T17:09:35.079Z,52.40
2022-12-13T17:14:36.988Z,52.00
2022-12-13T17:19:38.874Z,52.50
2022-12-13T17:24:40.534Z,51.30
2022-12-13T17:29:42.669Z,51.30
2022-12-13T17:34:44.363Z,52.60
2022-12-13T17:39:45.906Z,52.20
2022-12-13T17:44:47.868Z,52.10
2022-12-13T17:49:49.418Z,51.90
2022-12-13T17:54:51.077Z,51.90
2022-12-13T17:59:52.751Z,52.10
2022-12-13T18:04:54.729Z,52.10
2022-12-13T18:09:56.555Z,52.30
2022-12-13T18:14:58.332Z,52.40
2022-12-13T18:20:00.974Z,52.30
2022-12-13T18:25:02.728Z,52.20
2022-12-13T18:30:04.675Z,52.10
2022-12-13T18:35:06.749Z,51.90
2022-12-13T18:40:08.723Z,51.80
2022-12-13T18:45:10.489Z,52.00
2022-12-13T18:50:12.331Z,52.00
2022-12-13T18:55:15.096Z,52.00
2022-12-13T19:00:16.963Z,51.90
2022-12-13T19:05:18.709Z,51.70
2022-12-13T19:10:20.458Z,51.70
2022-12-13T19:15:22.254Z,51.70
2022-12-13T19:20:24.091Z,51.80
2022-12-13T19:25:26.133Z,52.00
2022-12-13T19:30:27.901Z,52.00
2022-12-13T19:35:29.580Z,52.10
2022-12-13T19:40:31.258Z,51.90
2022-12-13T19:45:33.125Z,51.90
2022-12-13T19:50:35.036Z,51.90
2022-12-13T19:55:36.929Z,51.90
2022-12-13T20:00:38.626Z,51.90
2022-12-13T20:05:45.429Z,51.90
2022-12-13T20:10:47.820Z,51.90
2022-12-13T20:15:49.582Z,51.80
2022-12-13T20:21:11.092Z,51.70
2022-12-13T20:26:14.923Z,51.60
2022-12-13T20:31:18.561Z,51.60
2022-12-13T20:36:25.086Z,51.70
2022-12-13T20:41:29.416Z,51.80
2022-12-13T20:46:31.885Z,51.90
2022-12-13T20:51:34.270Z,52.00
2022-12-13T20:56:36.980Z,52.10
2022-12-13T21:01:40.606Z,52.20
2022-12-13T21:06:42.601Z,52.50
2022-12-13T21:11:45.461Z,52.80
2022-12-13T21:16:54.372Z,53.10
2022-12-13T21:21:56.279Z,53.40
2022-12-13T21:26:58.075Z,53.60
2022-12-13T21:32:00.026Z,53.90
2022-12-13T21:37:01.705Z,54.10
2022-12-13T21:42:03.561Z,54.20
2022-12-13T21:47:13.214Z,54.50
2022-12-13T21:52:15.128Z,54.50
2022-12-13T21:57:35.241Z,54.80
2022-12-13T22:02:37.095Z,54.80
2022-12-13T22:07:38.747Z,54.80
2022-12-13T22:12:40.977Z,54.70
2022-12-13T22:17:43.101Z,54.70
2022-12-13T22:22:45.405Z,54.70
2022-12-13T22:27:47.109Z,54.60
2022-12-13T22:32:48.736Z,54.60
2022-12-13T22:37:50.374Z,54.50
2022-12-13T22:42:52.054Z,54.40
2022-12-13T22:47:54.626Z,54.30
2022-12-13T22:52:56.431Z,54.00
2022-12-13T22:57:58.063Z,53.70
2022-12-13T23:02:59.940Z,53.50
2022-12-13T23:08:01.688Z,53.40
2022-12-13T23:13:03.578Z,53.30
2022-12-13T23:18:05.143Z,53.20
2022-12-13T23:23:07.006Z,53.10
2022-12-13T23:28:08.788Z,53.30
2022-12-13T23:33:10.526Z,53.30
2022-12-13T23:38:12.243Z,53.20
2022-12-13T23:43:13.929Z,53.20
2022-12-13T23:48:15.722Z,53.10
2022-12-13T23:53:17.775Z,53.00
2022-12-13T23:58:20.580Z,53.00
